createdAt,value
2023-05-09T00:01:05.962Z,54.41
2023-05-09T00:03:33.674Z,55.93
2023-05-09T00:06:00.073Z,56.05
2023-05-09T00:08:26.466Z,56.47
2023-05-09T00:10:52.926Z,56.54
2023-05-09T00:13:19.318Z,54.67
2023-05-09T00:15:45.768Z,56.48
2023-05-09T00:18:12.200Z,55.68
2023-05-09T00:20:39.918Z,55.11
2023-05-09T00:23:06.676Z,57.16
2023-05-09T00:25:33.355Z,56.67
2023-05-09T00:27:59.979Z,57.38
2023-05-09T00:30:27.003Z,56.48
2023-05-09T00:32:53.469Z,56.89
2023-05-09T00:35:19.945Z,57.09
2023-05-09T00:37:47.695Z,57.33
2023-05-09T00:40:14.424Z,56.90
2023-05-09T00:42:40.861Z,56.62
2023-05-09T00:45:08.942Z,57.04
2023-05-09T00:47:35.585Z,57.89
2023-05-09T00:50:02.252Z,57.52
2023-05-09T00:52:28.635Z,56.39
2023-05-09T00:54:56.480Z,56.97
2023-05-09T00:57:23.061Z,57.84
2023-05-09T00:59:49.571Z,57.49
2023-05-09T01:02:17.769Z,56.98
2023-05-09T01:04:45.476Z,57.49
2023-05-09T01:07:19.042Z,58.54
2023-05-09T01:09:52.424Z,58.06
2023-05-09T01:12:30.957Z,58.97
2023-05-09T01:15:02.424Z,58.59
2023-05-09T01:17:36.636Z,58.40
2023-05-09T01:20:12.331Z,59.27
2023-05-09T01:22:45.091Z,59.19
2023-05-09T01:25:37.865Z,58.81
2023-05-09T01:28:14.151Z,58.41
2023-05-09T01:30:45.199Z,58.92
2023-05-09T01:33:16.038Z,58.63
2023-05-09T01:35:45.958Z,58.53
2023-05-09T01:38:15.289Z,59.56
2023-05-09T01:40:42.865Z,59.64
2023-05-09T01:43:10.578Z,58.85
2023-05-09T01:45:37.244Z,59.66
2023-05-09T01:48:07.275Z,60.51
2023-05-09T01:50:35.667Z,59.36
2023-05-09T01:53:05.714Z,59.75
2023-05-09T01:55:35.379Z,60.39
2023-05-09T01:58:04.289Z,59.95
2023-05-09T02:00:32.049Z,59.98
2023-05-09T02:02:59.225Z,59.04
2023-05-09T02:05:29.315Z,60.83
2023-05-09T02:07:56.780Z,60.57
2023-05-09T02:10:23.944Z,60.51
2023-05-09T02:12:50.322Z,60.16
2023-05-09T02:15:17.911Z,60.08
2023-05-09T02:17:44.317Z,60.92
2023-05-09T02:20:10.825Z,61.15
2023-05-09T02:22:40.307Z,61.47
2023-05-09T02:25:08.247Z,61.94
2023-05-09T02:27:34.993Z,61.49
2023-05-09T02:30:06.368Z,60.15
2023-05-09T02:32:34.225Z,61.47
2023-05-09T02:35:01.648Z,61.72
2023-05-09T02:37:28.527Z,60.77
2023-05-09T02:39:56.530Z,61.39
2023-05-09T02:42:24.541Z,60.23
2023-05-09T02:44:50.949Z,60.99
2023-05-09T02:47:17.797Z,60.37
2023-05-09T02:49:44.171Z,59.75
2023-05-09T02:52:10.794Z,61.26
2023-05-09T02:54:37.369Z,63.27
2023-05-09T02:57:05.187Z,63.00
2023-05-09T02:59:31.579Z,62.93
2023-05-09T03:01:58.190Z,61.76
2023-05-09T03:04:24.569Z,62.46
2023-05-09T03:06:51.310Z,61.69
2023-05-09T03:09:17.896Z,62.32
2023-05-09T03:11:44.269Z,62.93
2023-05-09T03:14:11.979Z,63.80
2023-05-09T03:16:38.605Z,64.06
2023-05-09T03:19:04.977Z,63.18
2023-05-09T03:21:31.447Z,63.67
2023-05-09T03:23:58.045Z,63.84
2023-05-09T03:26:24.458Z,65.00
2023-05-09T03:28:50.810Z,64.16
2023-05-09T03:31:18.682Z,64.90
2023-05-09T03:33:45.085Z,63.87
2023-05-09T03:36:11.448Z,64.46
2023-05-09T03:38:37.812Z,64.57
2023-05-09T03:41:04.377Z,64.17
2023-05-09T03:43:30.753Z,64.30
2023-05-09T03:45:57.122Z,63.55
2023-05-09T03:48:24.878Z,63.79
2023-05-09T03:50:51.295Z,65.44
2023-05-09T03:53:17.761Z,64.29
2023-05-09T03:55:44.141Z,64.26
2023-05-09T03:58:11.392Z,64.92
2023-05-09T04:00:38.323Z,64.59
2023-05-09T04:03:04.881Z,65.70
2023-05-09T04:05:32.982Z,65.94
2023-05-09T04:07:59.385Z,63.73
2023-05-09T04:10:25.754Z,64.06
2023-05-09T04:12:52.336Z,65.97
2023-05-09T04:15:20.212Z,65.16
2023-05-09T04:17:46.660Z,65.53
2023-05-09T04:20:13.069Z,64.69
2023-05-09T04:22:40.804Z,63.83
2023-05-09T04:25:07.838Z,63.96
2023-05-09T04:27:34.218Z,64.41
2023-05-09T04:30:00.590Z,65.22
2023-05-09T04:32:27.017Z,66.28
2023-05-09T04:34:53.424Z,67.09
2023-05-09T04:37:19.822Z,65.32
2023-05-09T04:39:47.556Z,66.64
2023-05-09T04:42:13.921Z,66.43
2023-05-09T04:44:40.309Z,65.01
2023-05-09T04:47:06.658Z,65.85
2023-05-09T04:49:33.040Z,64.03
2023-05-09T04:51:59.404Z,63.87
2023-05-09T04:54:25.792Z,64.98
2023-05-09T04:57:00.288Z,64.02
2023-05-09T04:59:33.183Z,64.67
2023-05-09T05:01:59.726Z,64.63
2023-05-09T05:04:26.287Z,64.63
2023-05-09T05:06:52.710Z,65.01
2023-05-09T05:09:19.115Z,64.49
2023-05-09T05:11:58.462Z,63.45
2023-05-09T05:14:28.825Z,63.12
2023-05-09T05:16:55.366Z,62.04
2023-05-09T05:19:21.856Z,61.35
2023-05-09T05:21:48.335Z,63.06
2023-05-09T05:24:14.743Z,63.21
2023-05-09T05:26:41.132Z,64.39
2023-05-09T05:29:07.717Z,63.36
2023-05-09T05:31:35.498Z,62.19
2023-05-09T05:34:02.247Z,62.61
2023-05-09T05:36:28.628Z,62.70
2023-05-09T05:38:54.984Z,62.28
2023-05-09T05:41:21.355Z,61.84
2023-05-09T05:43:47.781Z,61.63
2023-05-09T05:46:14.235Z,61.65
2023-05-09T05:48:42.073Z,62.30
2023-05-09T05:51:08.493Z,61.93
2023-05-09T05:53:34.918Z,59.54
2023-05-09T05:56:01.269Z,61.38
2023-05-09T05:58:27.652Z,60.98
2023-05-09T06:00:54.032Z,61.47
2023-05-09T06:03:20.528Z,58.85
2023-05-09T06:05:48.469Z,59.58
2023-05-09T06:08:14.920Z,59.09
2023-05-09T06:10:41.360Z,58.78
2023-05-09T06:13:07.852Z,58.85
2023-05-09T06:15:34.226Z,58.35
2023-05-09T06:18:00.705Z,57.82
2023-05-09T06:20:27.214Z,58.25
2023-05-09T06:22:55.018Z,58.20
2023-05-09T06:25:21.411Z,56.82
2023-05-09T06:27:47.875Z,56.92
2023-05-09T06:30:25.389Z,57.20
2023-05-09T06:32:53.465Z,57.41
2023-05-09T06:35:19.925Z,57.82
2023-05-09T06:37:58.914Z,57.90
2023-05-09T06:40:32.670Z,58.78
2023-05-09T06:42:59.107Z,57.48
2023-05-09T06:45:26.731Z,57.03
2023-05-09T06:47:53.212Z,55.55
2023-05-09T06:50:19.939Z,55.12
2023-05-09T06:52:46.339Z,54.16
2023-05-09T06:55:12.860Z,48.64
2023-05-09T06:57:40.741Z,46.17
2023-05-09T07:00:08.229Z,43.63
2023-05-09T07:02:34.860Z,38.42
2023-05-09T07:05:01.543Z,38.68
2023-05-09T07:07:28.041Z,40.32
2023-05-09T07:10:00.647Z,43.73
2023-05-09T07:12:34.090Z,47.40
2023-05-09T07:15:01.850Z,49.66
2023-05-09T07:17:28.240Z,45.31
2023-05-09T07:19:54.680Z,38.95
2023-05-09T07:22:21.187Z,34.41
2023-05-09T07:24:47.852Z,40.26
2023-05-09T07:27:14.403Z,42.25
2023-05-09T07:29:40.849Z,40.46
2023-05-09T07:32:08.799Z,38.00
2023-05-09T07:34:35.923Z,33.31
2023-05-09T07:37:02.316Z,34.97
2023-05-09T07:39:28.696Z,26.94
2023-05-09T07:41:55.102Z,34.90
2023-05-09T07:44:21.606Z,42.08
2023-05-09T07:46:48.025Z,43.72
2023-05-09T07:49:15.803Z,35.75
2023-05-09T07:51:42.212Z,31.01
2023-05-09T07:54:08.661Z,35.73
2023-05-09T07:56:35.089Z,41.47
2023-05-09T07:59:01.467Z,36.98
2023-05-09T08:01:27.865Z,43.30
2023-05-09T08:03:54.457Z,34.07
2023-05-09T08:06:22.307Z,30.28
2023-05-09T08:08:49.413Z,33.46
2023-05-09T08:11:15.781Z,36.23
2023-05-09T08:13:42.153Z,37.50
2023-05-09T08:16:08.591Z,36.59
2023-05-09T08:18:35.019Z,31.96
2023-05-09T08:21:01.429Z,35.40
2023-05-09T08:23:29.208Z,41.69
2023-05-09T08:25:56.287Z,43.43
2023-05-09T08:28:22.719Z,43.19
2023-05-09T08:30:49.067Z,43.42
2023-05-09T08:33:15.550Z,43.13
2023-05-09T08:35:41.987Z,42.12
2023-05-09T08:38:08.584Z,44.77
2023-05-09T08:40:37.148Z,44.29
2023-05-09T08:43:06.303Z,44.46
2023-05-09T08:45:35.564Z,44.00
2023-05-09T08:48:03.146Z,43.72
2023-05-09T08:50:29.779Z,43.17
2023-05-09T08:52:56.480Z,44.50
2023-05-09T08:55:23.321Z,44.45
2023-05-09T08:57:52.217Z,46.21
2023-05-09T09:00:20.584Z,40.92
2023-05-09T09:02:48.076Z,42.76
2023-05-09T09:05:34.157Z,42.85
2023-05-09T09:08:03.164Z,41.44
2023-05-09T09:10:32.649Z,33.17
2023-05-09T09:13:02.641Z,35.97
2023-05-09T09:15:34.048Z,40.70
2023-05-09T09:18:09.234Z,43.28
2023-05-09T09:20:40.295Z,43.44
2023-05-09T09:23:09.116Z,42.31
2023-05-09T09:25:35.483Z,40.70
2023-05-09T09:28:03.944Z,41.83
2023-05-09T09:30:30.354Z,36.62
2023-05-09T09:32:58.737Z,36.68
2023-05-09T09:35:25.162Z,34.06
2023-05-09T09:37:59.649Z,36.18
2023-05-09T09:40:26.400Z,37.98
2023-05-09T09:42:52.821Z,39.33
2023-05-09T09:45:22.699Z,40.87
2023-05-09T09:47:49.507Z,41.37
2023-05-09T09:50:17.622Z,40.95
2023-05-09T09:52:49.931Z,41.57
2023-05-09T09:55:16.679Z,42.12
2023-05-09T09:57:43.109Z,42.46
2023-05-09T10:00:10.696Z,41.44
2023-05-09T10:02:48.757Z,41.72
2023-05-09T10:05:19.667Z,40.60
2023-05-09T10:07:46.183Z,39.21
2023-05-09T10:10:12.751Z,39.94
2023-05-09T10:12:43.251Z,39.34
2023-05-09T10:15:12.317Z,40.38
2023-05-09T10:17:38.969Z,40.96
2023-05-09T10:20:08.752Z,41.74
2023-05-09T10:22:38.978Z,42.67
2023-05-09T10:25:08.326Z,40.83
2023-05-09T10:27:35.903Z,42.43
2023-05-09T10:30:04.400Z,40.35
2023-05-09T10:32:37.614Z,42.50
2023-05-09T10:35:06.382Z,41.23
2023-05-09T10:37:35.183Z,39.48
2023-05-09T10:40:04.127Z,38.67
2023-05-09T10:42:31.144Z,40.69
2023-05-09T10:44:57.549Z,39.70
2023-05-09T10:47:26.583Z,39.96
2023-05-09T10:49:53.731Z,38.86
2023-05-09T10:52:21.286Z,40.93
2023-05-09T10:54:58.750Z,40.59
2023-05-09T10:57:26.492Z,41.94
2023-05-09T10:59:54.720Z,41.13
2023-05-09T11:02:21.284Z,41.39
2023-05-09T11:04:47.768Z,40.38
2023-05-09T11:07:25.013Z,40.18
2023-05-09T11:10:08.200Z,39.99
2023-05-09T11:12:34.714Z,40.02
2023-05-09T11:15:06.099Z,38.69
2023-05-09T11:17:32.582Z,38.48
2023-05-09T11:20:01.141Z,39.20
2023-05-09T11:22:29.193Z,39.82
2023-05-09T11:25:08.508Z,40.46
2023-05-09T11:27:43.276Z,41.51
2023-05-09T11:30:11.761Z,41.22
2023-05-09T11:32:44.499Z,39.90
2023-05-09T11:35:12.546Z,41.26
2023-05-09T11:37:47.212Z,41.32
2023-05-09T11:40:16.046Z,41.06
2023-05-09T11:42:44.060Z,41.03
2023-05-09T11:45:12.104Z,41.94
2023-05-09T11:47:39.177Z,41.64
2023-05-09T11:50:07.628Z,41.61
2023-05-09T11:52:34.011Z,41.72
2023-05-09T11:55:00.542Z,40.86
2023-05-09T11:57:28.596Z,41.57
2023-05-09T11:59:55.179Z,41.94
2023-05-09T12:02:22.002Z,41.99
2023-05-09T12:04:48.583Z,41.63
2023-05-09T12:07:15.001Z,41.79
2023-05-09T12:09:41.484Z,41.97
2023-05-09T12:12:11.360Z,42.29
2023-05-09T12:14:39.988Z,41.88
2023-05-09T12:17:06.871Z,42.71
2023-05-09T12:19:33.933Z,42.50
2023-05-09T12:22:02.558Z,42.45
2023-05-09T12:24:30.457Z,42.40
2023-05-09T12:26:59.259Z,41.00
2023-05-09T12:29:26.825Z,42.10
2023-05-09T12:31:55.197Z,42.55
2023-05-09T12:34:21.849Z,41.54
2023-05-09T12:36:48.287Z,41.48
2023-05-09T12:39:14.656Z,42.59
2023-05-09T12:41:57.515Z,43.03
2023-05-09T12:44:27.848Z,42.61
2023-05-09T12:47:00.281Z,42.71
2023-05-09T12:49:27.794Z,40.78
2023-05-09T12:51:56.015Z,41.40
2023-05-09T12:54:23.743Z,40.18
2023-05-09T12:56:50.852Z,41.17
2023-05-09T12:59:20.451Z,41.54
2023-05-09T13:01:51.727Z,40.52
2023-05-09T13:04:20.376Z,40.78
2023-05-09T13:06:50.782Z,41.76
2023-05-09T13:09:18.391Z,40.88
2023-05-09T13:11:45.174Z,42.12
2023-05-09T13:14:11.722Z,42.30
2023-05-09T13:16:38.369Z,42.10
2023-05-09T13:19:04.772Z,42.69
2023-05-09T13:21:32.624Z,42.80
2023-05-09T13:23:59.058Z,42.84
2023-05-09T13:26:25.594Z,42.72
2023-05-09T13:28:51.970Z,41.90
2023-05-09T13:31:18.931Z,42.03
2023-05-09T13:33:45.419Z,43.01
2023-05-09T13:36:11.801Z,42.64
2023-05-09T13:38:39.731Z,42.78
2023-05-09T13:41:06.224Z,43.02
2023-05-09T13:43:32.726Z,42.76
2023-05-09T13:45:59.143Z,43.32
2023-05-09T13:48:25.764Z,44.31
2023-05-09T13:50:52.240Z,44.31
2023-05-09T13:53:18.666Z,44.05
2023-05-09T13:55:46.446Z,43.56
2023-05-09T13:58:12.894Z,42.99
2023-05-09T14:00:39.307Z,43.68
2023-05-09T14:03:05.741Z,44.03
2023-05-09T14:05:32.363Z,43.74
2023-05-09T14:07:58.917Z,42.95
2023-05-09T14:10:25.367Z,43.66
2023-05-09T14:12:53.381Z,43.52
2023-05-09T14:15:21.002Z,41.61
2023-05-09T14:17:47.502Z,42.49
2023-05-09T14:20:14.224Z,43.48
2023-05-09T14:22:40.983Z,42.89
2023-05-09T14:25:08.125Z,42.79
2023-05-09T14:27:34.508Z,43.32
2023-05-09T14:30:02.648Z,43.83
2023-05-09T14:32:29.036Z,44.69
2023-05-09T14:34:55.432Z,44.23
2023-05-09T14:37:21.850Z,43.97
2023-05-09T14:39:48.251Z,44.40
2023-05-09T14:42:14.768Z,43.90
2023-05-09T14:44:41.791Z,44.76
2023-05-09T14:47:10.014Z,44.56
2023-05-09T14:49:37.101Z,44.50
2023-05-09T14:52:03.618Z,44.38
2023-05-09T14:54:29.972Z,44.22
2023-05-09T14:56:56.324Z,44.45
2023-05-09T14:59:22.897Z,43.98
2023-05-09T15:01:49.255Z,43.92
2023-05-09T15:04:17.022Z,44.55
2023-05-09T15:06:43.525Z,43.80
2023-05-09T15:09:09.995Z,43.79
2023-05-09T15:11:46.982Z,44.77
2023-05-09T15:14:15.257Z,45.18
2023-05-09T15:16:41.850Z,44.90
2023-05-09T15:19:08.440Z,44.74
2023-05-09T15:21:36.243Z,45.02
2023-05-09T15:24:04.335Z,45.04
2023-05-09T15:26:30.782Z,45.51
2023-05-09T15:28:57.353Z,44.62
2023-05-09T15:31:23.760Z,44.71
2023-05-09T15:33:50.191Z,44.35
2023-05-09T15:36:16.678Z,44.65
2023-05-09T15:38:44.451Z,45.16
2023-05-09T15:41:10.813Z,44.20
2023-05-09T15:43:37.216Z,44.79
2023-05-09T15:46:03.649Z,44.57
2023-05-09T15:48:30.043Z,43.98
2023-05-09T15:50:59.746Z,44.61
2023-05-09T15:53:26.223Z,43.91
2023-05-09T15:55:53.944Z,43.40
2023-05-09T15:58:20.380Z,43.72
2023-05-09T16:00:46.754Z,43.39
2023-05-09T16:03:13.179Z,43.14
2023-05-09T16:05:39.719Z,43.39
2023-05-09T16:08:06.205Z,43.71
2023-05-09T16:10:32.791Z,43.44
2023-05-09T16:13:00.548Z,43.39
2023-05-09T16:15:27.033Z,43.29
2023-05-09T16:17:53.426Z,42.92
2023-05-09T16:20:20.004Z,43.69
2023-05-09T16:22:46.442Z,43.73
2023-05-09T16:25:12.801Z,43.75
2023-05-09T16:27:39.250Z,43.48
2023-05-09T16:30:08.642Z,43.12
2023-05-09T16:32:35.442Z,43.54
2023-05-09T16:35:01.935Z,43.62
2023-05-09T16:37:28.355Z,43.21
2023-05-09T16:39:54.751Z,43.24
2023-05-09T16:42:21.129Z,43.35
2023-05-09T16:44:47.937Z,43.29
2023-05-09T16:47:15.692Z,43.86
2023-05-09T16:49:42.102Z,43.79
2023-05-09T16:52:08.657Z,43.69
2023-05-09T16:54:35.071Z,43.75
2023-05-09T16:57:01.470Z,43.30
2023-05-09T16:59:27.869Z,43.10
2023-05-09T17:01:54.306Z,42.99
2023-05-09T17:04:22.178Z,43.14
2023-05-09T17:06:48.626Z,42.77
2023-05-09T17:09:14.976Z,42.63
2023-05-09T17:11:41.593Z,42.36
2023-05-09T17:14:08.017Z,42.38
2023-05-09T17:16:35.917Z,42.44
2023-05-09T17:19:04.364Z,42.59
2023-05-09T17:21:32.075Z,42.42
2023-05-09T17:23:58.426Z,41.96
2023-05-09T17:26:24.838Z,41.81
2023-05-09T17:28:51.196Z,41.64
2023-05-09T17:31:17.636Z,41.42
2023-05-09T17:33:44.029Z,42.06
2023-05-09T17:36:10.445Z,41.94
2023-05-09T17:38:38.175Z,41.61
2023-05-09T17:41:04.786Z,41.50
2023-05-09T17:43:31.240Z,41.97
2023-05-09T17:45:57.775Z,42.12
2023-05-09T17:48:24.181Z,41.61
2023-05-09T17:50:50.629Z,41.78
2023-05-09T17:53:17.320Z,41.77
2023-05-09T17:55:45.165Z,41.47
2023-05-09T17:58:11.577Z,41.47
2023-05-09T18:00:37.981Z,41.49
2023-05-09T18:03:04.816Z,41.46
2023-05-09T18:05:31.403Z,41.33
2023-05-09T18:07:57.805Z,41.90
2023-05-09T18:10:24.296Z,41.54
2023-05-09T18:12:52.110Z,41.53
2023-05-09T18:15:19.575Z,41.16
2023-05-09T18:17:46.047Z,41.70
2023-05-09T18:20:12.949Z,41.16
2023-05-09T18:22:39.427Z,41.54
2023-05-09T18:25:06.709Z,41.54
2023-05-09T18:27:33.110Z,41.59
2023-05-09T18:30:00.822Z,40.97
2023-05-09T18:32:27.433Z,40.73
2023-05-09T18:34:53.942Z,40.92
2023-05-09T18:37:20.359Z,40.89
2023-05-09T18:39:46.766Z,41.29
2023-05-09T18:42:15.944Z,41.12
2023-05-09T18:44:42.764Z,41.15
2023-05-09T18:47:10.590Z,41.06
2023-05-09T18:49:37.128Z,40.96
2023-05-09T18:52:03.964Z,40.03
2023-05-09T18:54:30.463Z,39.63
2023-05-09T18:56:56.916Z,39.77
2023-05-09T18:59:23.667Z,39.73
2023-05-09T19:01:50.076Z,39.73
2023-05-09T19:04:17.804Z,39.82
2023-05-09T19:06:44.268Z,39.83
2023-05-09T19:09:10.799Z,39.53
2023-05-09T19:11:37.473Z,39.31
2023-05-09T19:14:04.015Z,39.21
2023-05-09T19:16:30.582Z,39.13
2023-05-09T19:18:57.469Z,38.83
2023-05-09T19:21:25.158Z,39.23
2023-05-09T19:23:51.977Z,39.21
2023-05-09T19:26:19.271Z,38.90
2023-05-09T19:28:46.408Z,38.70
2023-05-09T19:31:13.721Z,37.89
2023-05-09T19:33:40.194Z,38.76
2023-05-09T19:36:06.947Z,38.48
2023-05-09T19:38:34.658Z,38.81
2023-05-09T19:41:01.106Z,38.46
2023-05-09T19:43:27.709Z,38.30
2023-05-09T19:45:54.152Z,38.82
2023-05-09T19:48:20.822Z,38.06
2023-05-09T19:50:47.311Z,38.28
2023-05-09T19:53:13.716Z,38.08
2023-05-09T19:55:41.471Z,37.71
2023-05-09T19:58:07.883Z,38.31
2023-05-09T20:00:34.349Z,38.08
2023-05-09T20:03:00.829Z,38.01
2023-05-09T20:05:27.306Z,37.76
2023-05-09T20:07:53.721Z,37.68
2023-05-09T20:10:20.243Z,37.82
2023-05-09T20:12:47.973Z,38.26
2023-05-09T20:15:14.404Z,38.41
2023-05-09T20:17:40.869Z,37.83
2023-05-09T20:20:08.169Z,37.75
2023-05-09T20:22:34.556Z,38.05
2023-05-09T20:25:00.939Z,38.27
2023-05-09T20:27:27.349Z,38.63
2023-05-09T20:29:55.355Z,38.69
2023-05-09T20:32:21.842Z,38.44
2023-05-09T20:34:48.438Z,38.58
2023-05-09T20:37:14.863Z,38.49
2023-05-09T20:39:41.249Z,38.21
2023-05-09T20:42:07.613Z,38.44
2023-05-09T20:44:36.881Z,38.57
2023-05-09T20:47:04.780Z,38.55
2023-05-09T20:49:31.194Z,38.26
2023-05-09T20:51:57.598Z,38.68
2023-05-09T20:54:24.123Z,38.38
2023-05-09T20:56:50.718Z,38.37
2023-05-09T20:59:17.148Z,38.57
2023-05-09T21:01:43.601Z,38.33
2023-05-09T21:04:11.414Z,38.97
2023-05-09T21:06:38.207Z,38.62
2023-05-09T21:09:04.887Z,39.45
2023-05-09T21:11:31.389Z,39.05
2023-05-09T21:13:57.772Z,39.14
2023-05-09T21:16:24.162Z,38.83
2023-05-09T21:18:50.531Z,39.21
2023-05-09T21:21:18.338Z,39.25
2023-05-09T21:23:44.746Z,39.11
2023-05-09T21:26:11.175Z,39.66
2023-05-09T21:28:37.607Z,39.20
2023-05-09T21:31:04.281Z,39.61
2023-05-09T21:33:30.709Z,39.48
2023-05-09T21:35:57.163Z,39.64
2023-05-09T21:38:24.954Z,40.16
2023-05-09T21:40:51.406Z,40.57
2023-05-09T21:43:17.933Z,40.76
2023-05-09T21:45:44.529Z,40.16
2023-05-09T21:48:11.373Z,40.81
2023-05-09T21:50:37.858Z,40.72
2023-05-09T21:53:04.282Z,41.01
2023-05-09T21:55:31.996Z,40.74
2023-05-09T21:57:58.394Z,41.10
2023-05-09T22:00:24.973Z,41.10
2023-05-09T22:02:51.478Z,41.11
2023-05-09T22:05:17.978Z,40.55
2023-05-09T22:07:44.446Z,41.63
2023-05-09T22:10:11.027Z,41.44
2023-05-09T22:12:38.760Z,41.58
2023-05-09T22:15:06.644Z,41.61
2023-05-09T22:17:33.082Z,41.44
2023-05-09T22:19:59.546Z,42.07
2023-05-09T22:22:26.001Z,41.96
2023-05-09T22:24:52.393Z,42.02
2023-05-09T22:27:19.101Z,42.39
2023-05-09T22:29:46.799Z,41.85
2023-05-09T22:32:13.970Z,42.59
2023-05-09T22:34:40.393Z,42.63
2023-05-09T22:37:06.725Z,41.99
2023-05-09T22:39:33.092Z,43.28
2023-05-09T22:41:59.497Z,42.22
2023-05-09T22:44:25.841Z,43.08
2023-05-09T22:46:53.513Z,42.35
2023-05-09T22:49:19.996Z,42.48
2023-05-09T22:51:46.415Z,42.54
2023-05-09T22:54:12.758Z,42.71
2023-05-09T22:56:39.110Z,43.38
2023-05-09T22:59:05.450Z,43.56
2023-05-09T23:01:31.811Z,43.14
2023-05-09T23:03:59.599Z,42.72
2023-05-09T23:06:25.971Z,41.86
2023-05-09T23:08:52.329Z,41.98
2023-05-09T23:11:18.688Z,42.10
2023-05-09T23:13:46.011Z,42.16
2023-05-09T23:16:12.457Z,43.00
2023-05-09T23:18:38.833Z,42.36
2023-05-09T23:21:06.530Z,42.91
2023-05-09T23:23:32.938Z,43.86
2023-05-09T23:25:59.496Z,43.99
2023-05-09T23:28:25.899Z,44.58
2023-05-09T23:30:53.323Z,44.81
2023-05-09T23:33:19.770Z,43.78
2023-05-09T23:35:46.161Z,43.94
2023-05-09T23:38:13.839Z,43.52
2023-05-09T23:40:40.290Z,44.79
2023-05-09T23:43:06.753Z,45.19
2023-05-09T23:45:33.095Z,44.79
2023-05-09T23:47:59.646Z,44.38
2023-05-09T23:50:26.020Z,44.00
2023-05-09T23:52:52.405Z,44.96
2023-05-09T23:55:20.154Z,46.88
2023-05-09T23:57:46.660Z,46.36
